createdAt,value
2019-02-23T00:00:01.618Z,-4.52
2019-02-23T00:02:29.883Z,-4.47
2019-02-23T00:04:58.153Z,-5.11
2019-02-23T00:07:26.516Z,-4.26
2019-02-23T00:09:54.777Z,-4.62
2019-02-23T00:12:23.096Z,-4.85
2019-02-23T00:14:51.362Z,-4.56
2019-02-23T00:17:19.644Z,-4.37
2019-02-23T00:19:47.907Z,-4.75
2019-02-23T00:22:16.203Z,-4.26
2019-02-23T00:24:44.497Z,-4.52
2019-02-23T00:27:12.760Z,-4.40
2019-02-23T00:29:41.058Z,-4.28
2019-02-23T00:32:09.361Z,-4.23
2019-02-23T00:34:37.625Z,-4.34
2019-02-23T00:37:05.884Z,-4.38
2019-02-23T00:39:34.162Z,-4.60
2019-02-23T00:42:02.425Z,-4.17
2019-02-23T00:44:30.708Z,-3.97
2019-02-23T00:47:00.007Z,-4.44
2019-02-23T00:49:35.879Z,-4.13
2019-02-23T00:54:46.786Z,-4.88
2019-02-23T00:57:15.050Z,-5.19
2019-02-23T00:59:43.308Z,-5.13
2019-02-23T01:02:12.117Z,-4.87
2019-02-23T01:04:40.545Z,-4.64
2019-02-23T01:07:08.837Z,-4.57
2019-02-23T01:09:37.102Z,-4.54
2019-02-23T01:12:05.394Z,-4.51
2019-02-23T01:14:33.655Z,-4.18
2019-02-23T01:17:01.939Z,-4.36
2019-02-23T01:19:30.236Z,-4.58
2019-02-23T01:21:58.500Z,-4.76
2019-02-23T01:24:26.790Z,-4.66
2019-02-23T01:26:55.049Z,-5.41
2019-02-23T01:29:23.345Z,-5.29
2019-02-23T01:31:51.603Z,-4.97
2019-02-23T01:34:19.880Z,-4.84
2019-02-23T01:36:48.139Z,-5.20
2019-02-23T01:39:16.441Z,-4.99
2019-02-23T01:41:44.723Z,-5.34
2019-02-23T01:44:12.983Z,-5.26
2019-02-23T01:46:41.259Z,-4.90
2019-02-23T01:49:09.532Z,-4.91
2019-02-23T01:51:37.803Z,-5.38
2019-02-23T01:54:06.068Z,-5.32
2019-02-23T01:56:34.355Z,-5.45
2019-02-23T01:59:02.611Z,-5.08
2019-02-23T02:01:30.909Z,-5.16
2019-02-23T02:03:59.171Z,-4.89
2019-02-23T02:06:27.465Z,-5.12
2019-02-23T02:08:55.756Z,-4.81
2019-02-23T02:11:24.421Z,-5.40
2019-02-23T02:13:52.750Z,-5.59
2019-02-23T02:16:21.030Z,-5.61
2019-02-23T02:18:49.285Z,-5.59
2019-02-23T02:21:19.005Z,-5.67
2019-02-23T02:23:47.301Z,-5.92
2019-02-23T02:26:15.672Z,-5.97
2019-02-23T02:28:43.937Z,-5.79
2019-02-23T02:31:12.239Z,-5.19
2019-02-23T02:34:02.109Z,-5.25
2019-02-23T02:36:30.384Z,-5.51
2019-02-23T02:38:58.684Z,-5.81
2019-02-23T02:41:26.954Z,-5.53
2019-02-23T02:43:55.229Z,-5.52
2019-02-23T02:46:23.487Z,-5.70
2019-02-23T02:48:51.761Z,-5.21
2019-02-23T02:51:20.026Z,-5.15
2019-02-23T02:53:48.350Z,-4.54
2019-02-23T02:56:16.613Z,-4.23
2019-02-23T02:58:44.941Z,-4.16
2019-02-23T03:01:13.224Z,-4.03
2019-02-23T03:03:41.524Z,-4.02
2019-02-23T03:06:09.827Z,-4.27
2019-02-23T03:08:38.090Z,-4.75
2019-02-23T03:11:06.382Z,-4.95
2019-02-23T03:13:34.679Z,-4.99
2019-02-23T03:16:02.940Z,-5.51
2019-02-23T03:18:31.246Z,-5.27
2019-02-23T03:20:59.523Z,-5.40
2019-02-23T03:23:27.781Z,-4.88
2019-02-23T03:25:56.082Z,-4.28
2019-02-23T03:28:24.364Z,-4.73
2019-02-23T03:30:52.633Z,-4.55
2019-02-23T03:33:20.943Z,-4.99
2019-02-23T03:35:49.273Z,-4.67
2019-02-23T03:38:17.534Z,-4.71
2019-02-23T03:40:45.804Z,-5.26
2019-02-23T03:43:14.069Z,-5.79
2019-02-23T03:45:42.362Z,-5.87
2019-02-23T03:48:10.624Z,-6.15
2019-02-23T03:50:48.717Z,-6.31
2019-02-23T03:53:08.944Z,-6.32
2019-02-23T03:55:37.218Z,-6.30
2019-02-23T03:58:05.510Z,-6.07
2019-02-23T04:00:33.772Z,-6.26
2019-02-23T04:03:02.047Z,-6.17
2019-02-23T04:05:30.344Z,-6.45
2019-02-23T04:07:58.603Z,-6.47
2019-02-23T04:10:26.908Z,-6.28
2019-02-23T04:12:55.207Z,-6.38
2019-02-23T04:15:23.483Z,-6.48
2019-02-23T04:17:51.771Z,-6.61
2019-02-23T04:20:20.067Z,-6.34
2019-02-23T04:22:48.344Z,-6.05
2019-02-23T04:25:16.623Z,-6.34
2019-02-23T04:27:45.284Z,-6.47
2019-02-23T04:30:13.544Z,-6.44
2019-02-23T04:32:41.837Z,-6.80
2019-02-23T04:35:10.105Z,-6.72
2019-02-23T04:37:38.411Z,-6.72
2019-02-23T04:40:07.344Z,-6.68
2019-02-23T04:42:35.604Z,-6.67
2019-02-23T04:45:04.541Z,-6.73
2019-02-23T04:47:32.796Z,-6.66
2019-02-23T04:50:01.091Z,-6.84
2019-02-23T04:52:29.350Z,-6.64
2019-02-23T04:54:57.659Z,-6.36
2019-02-23T04:57:25.907Z,-6.38
2019-02-23T04:59:54.198Z,-6.10
2019-02-23T05:02:22.524Z,-6.45
2019-02-23T05:04:50.802Z,-6.48
2019-02-23T05:07:19.053Z,-6.63
2019-02-23T05:09:47.323Z,-6.49
2019-02-23T05:12:15.628Z,-6.83
2019-02-23T05:14:43.894Z,-6.92
2019-02-23T05:17:12.197Z,-7.05
2019-02-23T05:19:40.462Z,-7.04
2019-02-23T05:22:08.729Z,-7.06
2019-02-23T05:24:37.037Z,-7.20
2019-02-23T05:27:05.333Z,-7.06
2019-02-23T05:29:33.598Z,-7.00
2019-02-23T05:32:01.896Z,-6.81
2019-02-23T05:34:30.175Z,-6.48
2019-02-23T05:36:58.434Z,-6.49
2019-02-23T05:39:26.710Z,-6.49
2019-02-23T05:41:54.984Z,-6.63
2019-02-23T05:44:23.245Z,-6.77
2019-02-23T05:46:51.543Z,-6.65
2019-02-23T05:49:19.837Z,-6.40
2019-02-23T05:51:48.105Z,-6.58
2019-02-23T05:54:16.389Z,-6.41
2019-02-23T05:56:44.662Z,-6.52
2019-02-23T05:59:12.938Z,-6.31
2019-02-23T06:01:41.247Z,-6.33
2019-02-23T06:04:09.521Z,-6.64
2019-02-23T06:06:37.819Z,-6.31
2019-02-23T06:09:06.115Z,-6.02
2019-02-23T06:11:36.643Z,-5.93
2019-02-23T06:14:04.919Z,-5.82
2019-02-23T06:16:33.205Z,-5.43
2019-02-23T06:19:01.469Z,-5.08
2019-02-23T06:21:30.279Z,-5.01
2019-02-23T06:23:58.736Z,-4.53
2019-02-23T06:26:27.342Z,-4.21
2019-02-23T06:28:55.625Z,-4.12
2019-02-23T06:31:23.977Z,-4.26
2019-02-23T06:33:52.263Z,-4.75
2019-02-23T06:36:20.530Z,-4.27
2019-02-23T06:38:48.830Z,-4.24
2019-02-23T06:41:17.093Z,-4.01
2019-02-23T06:43:45.370Z,-4.22
2019-02-23T06:46:13.663Z,-5.01
2019-02-23T06:48:41.926Z,-4.86
2019-02-23T06:51:10.223Z,-4.00
2019-02-23T06:53:38.486Z,-4.28
2019-02-23T06:56:06.769Z,-4.84
2019-02-23T06:58:35.033Z,-4.63
2019-02-23T07:01:03.311Z,-4.54
2019-02-23T07:03:31.611Z,-5.28
2019-02-23T07:05:59.874Z,-5.39
2019-02-23T07:08:28.152Z,-5.34
2019-02-23T07:10:56.433Z,-5.26
2019-02-23T07:13:24.708Z,-5.23
2019-02-23T07:15:53.573Z,-5.00
2019-02-23T07:18:21.838Z,-5.23
2019-02-23T07:20:50.132Z,-5.10
2019-02-23T07:23:18.440Z,-4.91
2019-02-23T07:25:46.711Z,-5.33
2019-02-23T07:28:15.040Z,-4.72
2019-02-23T07:30:43.331Z,-5.00
2019-02-23T07:33:11.653Z,-5.01
2019-02-23T07:35:39.940Z,-4.80
2019-02-23T07:38:08.204Z,-4.26
2019-02-23T07:40:36.509Z,-4.59
2019-02-23T07:43:04.771Z,-4.62
2019-02-23T07:45:33.039Z,-3.90
2019-02-23T07:48:01.333Z,-3.59
2019-02-23T07:50:29.602Z,-3.67
2019-02-23T07:52:57.883Z,-4.13
2019-02-23T07:55:26.145Z,-3.73
2019-02-23T07:57:54.440Z,-3.42
2019-02-23T08:00:22.701Z,-3.42
2019-02-23T08:02:50.992Z,-3.20
2019-02-23T08:05:19.273Z,-3.42
2019-02-23T08:07:47.567Z,-3.43
2019-02-23T08:10:15.829Z,-2.95
2019-02-23T08:12:44.112Z,-2.63
2019-02-23T08:15:12.671Z,-2.39
2019-02-23T08:17:40.952Z,-2.67
2019-02-23T08:20:11.158Z,-2.78
2019-02-23T08:22:39.452Z,-1.84
2019-02-23T08:25:10.075Z,-1.92
2019-02-23T08:27:38.339Z,-2.33
2019-02-23T08:30:10.280Z,-2.87
2019-02-23T08:32:38.545Z,-2.06
2019-02-23T08:35:07.745Z,-1.45
2019-02-23T08:37:36.057Z,-3.09
2019-02-23T08:40:07.300Z,-3.67
2019-02-23T08:42:35.601Z,-3.40
2019-02-23T08:45:03.869Z,-3.53
2019-02-23T08:47:32.158Z,-3.62
2019-02-23T08:50:00.422Z,-3.09
2019-02-23T08:52:28.717Z,-2.85
2019-02-23T08:54:56.992Z,-3.04
2019-02-23T08:57:25.297Z,-2.15
2019-02-23T08:59:53.562Z,-2.10
2019-02-23T09:02:21.824Z,-2.23
2019-02-23T09:04:50.098Z,-1.64
2019-02-23T09:07:18.390Z,-2.15
2019-02-23T09:09:46.680Z,-1.60
2019-02-23T09:12:14.944Z,-1.61
2019-02-23T09:20:28.600Z,-0.31
2019-02-23T09:22:59.698Z,-0.93
2019-02-23T09:25:20.191Z,-1.00
2019-02-23T09:27:48.455Z,-0.67
2019-02-23T09:30:16.732Z,-2.12
2019-02-23T09:32:44.990Z,-1.61
2019-02-23T09:35:13.267Z,-1.74
2019-02-23T09:37:43.119Z,-2.31
2019-02-23T09:40:16.618Z,-1.91
2019-02-23T09:42:44.885Z,-2.19
2019-02-23T09:45:13.185Z,-1.46
2019-02-23T09:47:41.444Z,-1.65
2019-02-23T09:50:09.714Z,-2.59
2019-02-23T09:52:37.976Z,-2.11
2019-02-23T09:55:07.209Z,-1.32
2019-02-23T09:57:35.468Z,-1.17
2019-02-23T10:00:04.312Z,-1.95
2019-02-23T10:02:32.581Z,-1.38
2019-02-23T10:05:00.880Z,-0.09
2019-02-23T10:07:29.151Z,0.17
2019-02-23T10:09:57.409Z,0.23
2019-02-23T10:12:25.694Z,-0.79
2019-02-23T10:14:53.958Z,-1.12
2019-02-23T10:17:22.249Z,-0.83
2019-02-23T10:19:50.532Z,-0.61
2019-02-23T10:22:18.837Z,-1.33
2019-02-23T10:24:47.102Z,-1.23
2019-02-23T10:27:15.398Z,-0.77
2019-02-23T10:29:43.655Z,-1.20
2019-02-23T10:32:11.958Z,0.68
2019-02-23T10:34:40.206Z,0.90
2019-02-23T10:37:08.495Z,0.30
2019-02-23T10:39:36.784Z,1.41
2019-02-23T10:42:05.043Z,0.78
2019-02-23T10:44:33.324Z,-0.35
2019-02-23T10:47:01.591Z,-1.37
2019-02-23T10:49:29.880Z,-1.04
2019-02-23T10:51:58.137Z,-1.20
2019-02-23T10:54:26.420Z,-1.03
2019-02-23T10:56:54.708Z,-0.97
2019-02-23T10:59:22.969Z,-0.29
2019-02-23T11:01:51.262Z,-1.10
2019-02-23T11:04:19.522Z,-0.13
2019-02-23T11:06:47.824Z,0.53
2019-02-23T11:09:17.728Z,0.19
2019-02-23T11:11:48.385Z,-0.29
2019-02-23T11:14:16.042Z,-0.94
2019-02-23T11:16:44.305Z,-0.68
2019-02-23T11:19:12.563Z,-0.20
2019-02-23T11:21:40.845Z,0.83
2019-02-23T11:24:09.104Z,0.39
2019-02-23T11:26:37.396Z,-0.02
2019-02-23T11:29:05.657Z,0.69
2019-02-23T11:31:33.954Z,-0.49
2019-02-23T11:34:02.230Z,-1.05
2019-02-23T11:36:30.503Z,-0.39
2019-02-23T11:38:58.800Z,-0.37
2019-02-23T11:41:27.062Z,0.79
2019-02-23T11:43:55.334Z,0.01
2019-02-23T11:46:23.640Z,0.01
2019-02-23T11:48:51.907Z,-0.30
2019-02-23T11:51:20.186Z,-0.12
2019-02-23T11:53:54.980Z,-0.43
2019-02-23T11:56:18.457Z,0.16
2019-02-23T11:58:46.717Z,-0.75
2019-02-23T12:01:15.014Z,-1.07
2019-02-23T12:03:43.269Z,-0.63
2019-02-23T12:06:11.573Z,-0.26
2019-02-23T12:08:39.833Z,-0.86
2019-02-23T12:11:08.096Z,0.12
2019-02-23T12:13:36.381Z,0.49
2019-02-23T12:16:04.659Z,-1.04
2019-02-23T12:18:34.592Z,-1.44
2019-02-23T12:21:02.889Z,-1.04
2019-02-23T12:23:31.163Z,-1.11
2019-02-23T12:25:59.454Z,-0.61
2019-02-23T12:28:27.713Z,-0.82
2019-02-23T12:30:56.007Z,-0.80
2019-02-23T12:33:24.272Z,-0.50
2019-02-23T12:35:52.568Z,-0.94
2019-02-23T12:38:20.825Z,-0.23
2019-02-23T12:40:49.123Z,-0.16
2019-02-23T12:43:17.387Z,0.58
2019-02-23T12:45:45.681Z,-0.32
2019-02-23T12:48:13.968Z,0.23
2019-02-23T12:50:42.257Z,0.62
2019-02-23T12:53:10.516Z,0.75
2019-02-23T12:55:38.812Z,0.03
2019-02-23T12:58:07.085Z,0.87
2019-02-23T13:00:35.361Z,0.61
2019-02-23T13:03:03.656Z,-0.02
2019-02-23T13:05:31.915Z,0.37
2019-02-23T13:08:00.208Z,-0.16
2019-02-23T13:10:28.468Z,-0.25
2019-02-23T13:13:00.030Z,-0.16
2019-02-23T13:15:31.549Z,-0.80
2019-02-23T13:18:03.115Z,0.01
2019-02-23T13:20:34.637Z,-0.75
2019-02-23T13:23:33.541Z,0.53
2019-02-23T13:26:22.959Z,0.04
2019-02-23T13:28:57.372Z,-0.67
2019-02-23T13:31:41.174Z,-0.33
2019-02-23T13:34:18.521Z,0.16
2019-02-23T13:37:06.522Z,0.32
2019-02-23T13:39:40.941Z,0.27
2019-02-23T13:42:21.469Z,0.05
2019-02-23T13:45:05.219Z,0.39
2019-02-23T13:47:42.844Z,0.10
2019-02-23T13:50:29.551Z,1.41
2019-02-23T13:53:10.102Z,1.16
2019-02-23T13:55:56.716Z,-0.51
2019-02-23T13:58:34.119Z,0.06
2019-02-23T14:01:21.699Z,0.56
2019-02-23T14:03:58.982Z,-0.28
2019-02-23T14:06:58.727Z,-0.37
2019-02-23T14:09:46.857Z,-0.56
2019-02-23T14:12:27.455Z,-0.17
2019-02-23T14:14:58.982Z,0.43
2019-02-23T14:17:54.820Z,-0.14
2019-02-23T14:20:44.510Z,0.48
2019-02-23T14:23:22.104Z,0.39
2019-02-23T14:25:53.651Z,0.25
2019-02-23T14:28:30.814Z,-0.22
2019-02-23T14:31:20.252Z,-0.33
2019-02-23T14:34:00.663Z,-0.16
2019-02-23T14:36:41.331Z,-0.70
2019-02-23T14:39:29.622Z,-0.43
2019-02-23T14:42:03.910Z,0.58
2019-02-23T14:44:51.729Z,0.26
2019-02-23T14:47:40.088Z,-0.01
2019-02-23T14:50:28.345Z,0.15
2019-02-23T14:53:06.140Z,-0.02
2019-02-23T14:55:55.695Z,-0.61
2019-02-23T14:58:27.229Z,-0.48
2019-02-23T15:01:02.792Z,-0.76
2019-02-23T15:03:50.632Z,-0.41
2019-02-23T15:06:49.621Z,-0.21
2019-02-23T15:09:21.149Z,-0.23
2019-02-23T15:11:59.509Z,-0.14
2019-02-23T15:14:39.931Z,-0.04
2019-02-23T15:17:27.986Z,-0.54
2019-02-23T15:20:31.608Z,-0.02
2019-02-23T15:23:07.043Z,-0.39
2019-02-23T15:26:10.122Z,-0.32
2019-02-23T15:28:56.801Z,-0.33
2019-02-23T15:31:48.153Z,-0.77
2019-02-23T15:34:39.298Z,0.04
2019-02-23T15:37:13.586Z,-0.27
2019-02-23T15:40:00.277Z,-0.57
2019-02-23T15:42:43.567Z,-0.59
2019-02-23T15:45:20.893Z,-0.48
2019-02-23T15:47:55.342Z,-0.46
2019-02-23T15:50:23.665Z,-0.27
2019-02-23T15:52:54.606Z,0.26
2019-02-23T15:55:25.955Z,0.41
2019-02-23T15:57:52.876Z,0.21
2019-02-23T16:00:21.135Z,-0.03
2019-02-23T16:02:49.428Z,-0.36
2019-02-23T16:05:17.730Z,-0.15
2019-02-23T16:07:46.078Z,-0.24
2019-02-23T16:10:16.721Z,0.22
2019-02-23T16:12:44.277Z,0.16
2019-02-23T16:15:12.568Z,0.43
2019-02-23T16:17:40.846Z,0.47
2019-02-23T16:20:09.128Z,0.08
2019-02-23T16:22:37.464Z,0.40
2019-02-23T16:25:06.271Z,0.50
2019-02-23T16:27:34.541Z,1.06
2019-02-23T16:30:05.253Z,0.59
2019-02-23T16:32:33.517Z,0.20
2019-02-23T16:35:01.817Z,0.41
2019-02-23T16:37:30.081Z,0.40
2019-02-23T16:39:58.748Z,0.29
2019-02-23T16:42:26.993Z,0.68
2019-02-23T16:44:55.292Z,0.24
2019-02-23T16:47:23.556Z,0.45
2019-02-23T16:49:53.488Z,0.35
2019-02-23T16:52:21.877Z,-0.40
2019-02-23T16:54:50.144Z,-0.02
2019-02-23T16:57:18.406Z,0.25
2019-02-23T16:59:46.704Z,0.22
2019-02-23T17:02:16.591Z,0.64
2019-02-23T17:04:52.959Z,0.70
2019-02-23T17:07:14.937Z,0.19
2019-02-23T17:09:43.199Z,0.24
2019-02-23T17:12:11.779Z,0.09
2019-02-23T17:14:40.033Z,0.96
2019-02-23T17:17:08.287Z,0.39
2019-02-23T17:19:36.562Z,0.12
2019-02-23T17:22:04.838Z,0.05
2019-02-23T17:24:33.153Z,-0.02
2019-02-23T17:27:01.415Z,0.16
2019-02-23T17:29:29.734Z,0.49
2019-02-23T17:31:58.022Z,1.00
2019-02-23T17:34:26.286Z,0.91
2019-02-23T17:36:56.206Z,0.47
2019-02-23T17:39:26.112Z,0.63
2019-02-23T17:41:54.400Z,1.21
2019-02-23T17:44:24.277Z,1.23
2019-02-23T17:46:54.198Z,1.36
2019-02-23T17:49:22.486Z,1.32
2019-02-23T17:51:50.758Z,1.40
2019-02-23T17:54:19.054Z,1.53
2019-02-23T17:56:47.348Z,1.52
2019-02-23T17:59:15.658Z,1.51
2019-02-23T18:01:43.919Z,1.61
2019-02-23T18:04:12.210Z,1.73
2019-02-23T18:06:40.492Z,1.38
2019-02-23T18:09:08.768Z,1.51
2019-02-23T18:11:37.047Z,1.57
2019-02-23T18:14:05.332Z,1.61
2019-02-23T18:16:33.610Z,1.57
2019-02-23T18:19:02.962Z,1.29
2019-02-23T18:21:31.255Z,1.41
2019-02-23T18:23:59.521Z,1.43
2019-02-23T18:26:27.812Z,1.38
2019-02-23T18:28:56.109Z,1.28
2019-02-23T18:31:24.388Z,1.33
2019-02-23T18:33:52.679Z,1.19
2019-02-23T18:36:20.987Z,1.27
2019-02-23T18:38:49.243Z,1.23
2019-02-23T18:41:17.506Z,1.30
2019-02-23T18:43:45.799Z,1.26
2019-02-23T18:46:14.094Z,1.29
2019-02-23T18:48:42.404Z,1.11
2019-02-23T18:51:10.671Z,1.11
2019-02-23T18:53:38.967Z,1.14
2019-02-23T18:56:07.236Z,1.28
2019-02-23T18:58:35.534Z,1.38
2019-02-23T19:01:03.807Z,1.52
2019-02-23T19:03:32.097Z,1.17
2019-02-23T19:06:00.362Z,0.63
2019-02-23T19:08:28.647Z,1.14
2019-02-23T19:10:57.211Z,1.42
2019-02-23T19:13:25.501Z,1.63
2019-02-23T19:15:53.775Z,1.73
2019-02-23T19:18:22.073Z,1.82
2019-02-23T19:20:50.365Z,0.67
2019-02-23T19:23:18.634Z,0.27
2019-02-23T19:25:46.914Z,0.81
2019-02-23T19:28:15.209Z,1.32
2019-02-23T19:30:43.489Z,1.53
2019-02-23T19:33:11.795Z,1.60
2019-02-23T19:35:40.068Z,1.71
2019-02-23T19:38:08.355Z,1.69
2019-02-23T19:40:36.657Z,1.64
2019-02-23T19:43:04.966Z,1.63
2019-02-23T19:45:33.242Z,1.72
2019-02-23T19:48:01.543Z,1.76
2019-02-23T19:50:33.076Z,1.65
2019-02-23T19:53:01.369Z,1.62
2019-02-23T19:55:29.683Z,1.37
2019-02-23T19:57:57.954Z,0.94
2019-02-23T20:00:26.383Z,1.14
2019-02-23T20:02:54.665Z,1.17
2019-02-23T20:05:22.964Z,0.99
2019-02-23T20:07:52.659Z,0.83
2019-02-23T20:10:21.092Z,1.04
2019-02-23T20:12:49.388Z,1.02
2019-02-23T20:15:17.682Z,1.13
2019-02-23T20:17:45.969Z,1.17
2019-02-23T20:20:14.578Z,1.19
2019-02-23T20:22:42.844Z,1.21
2019-02-23T20:25:11.142Z,1.14
2019-02-23T20:27:39.410Z,0.91
2019-02-23T20:30:09.956Z,0.90
2019-02-23T20:32:38.227Z,1.03
2019-02-23T20:35:08.145Z,0.48
2019-02-23T20:37:36.427Z,0.41
2019-02-23T20:40:07.058Z,0.48
2019-02-23T20:42:35.326Z,0.00
2019-02-23T20:45:04.609Z,0.29
2019-02-23T20:47:35.281Z,0.34
2019-02-23T20:50:05.321Z,0.05
2019-02-23T20:52:33.591Z,0.03
2019-02-23T20:55:01.879Z,-0.33
2019-02-23T20:57:36.742Z,-0.38
2019-02-23T21:00:11.309Z,-0.36
2019-02-23T21:02:39.888Z,-0.14
2019-02-23T21:05:13.026Z,-0.07
2019-02-23T21:07:41.330Z,-0.26
2019-02-23T21:10:10.104Z,-0.06
2019-02-23T21:12:38.389Z,-0.08
2019-02-23T21:15:08.933Z,-0.05
2019-02-23T21:17:37.231Z,-0.24
2019-02-23T21:20:07.742Z,-0.12
2019-02-23T21:22:36.030Z,-0.03
2019-02-23T21:25:05.947Z,-0.05
2019-02-23T21:27:34.245Z,-0.12
2019-02-23T21:30:02.527Z,-0.01
2019-02-23T21:32:30.798Z,-0.05
2019-02-23T21:34:59.094Z,-0.03
2019-02-23T21:37:27.359Z,-0.05
2019-02-23T21:39:55.658Z,0.00
2019-02-23T21:42:23.960Z,-0.08
2019-02-23T21:44:52.242Z,-0.37
2019-02-23T21:47:20.526Z,-0.29
2019-02-23T21:49:48.814Z,-0.44
2019-02-23T21:52:17.084Z,-0.54
2019-02-23T21:54:45.401Z,-0.41
2019-02-23T21:57:21.802Z,-0.52
2019-02-23T21:59:43.707Z,-0.44
2019-02-23T22:02:12.094Z,-0.39
2019-02-23T22:04:40.399Z,-0.39
2019-02-23T22:07:08.675Z,-0.38
2019-02-23T22:09:36.956Z,-0.52
2019-02-23T22:12:05.242Z,-0.39
2019-02-23T22:14:33.522Z,-0.40
2019-02-23T22:17:08.106Z,-0.38
2019-02-23T22:19:36.222Z,-0.40
2019-02-23T22:22:04.535Z,-0.52
2019-02-23T22:24:32.805Z,-0.52
2019-02-23T22:27:01.104Z,-0.72
2019-02-23T22:29:29.466Z,-0.72
2019-02-23T22:31:57.696Z,-0.64
2019-02-23T22:34:26.004Z,-0.56
2019-02-23T22:36:54.273Z,-0.55
2019-02-23T22:39:22.555Z,-1.01
2019-02-23T22:41:50.828Z,-0.86
2019-02-23T22:44:19.110Z,-0.72
2019-02-23T22:46:47.396Z,-0.64
2019-02-23T22:49:15.701Z,-0.66
2019-02-23T22:51:43.983Z,-0.74
2019-02-23T22:54:12.538Z,-0.58
2019-02-23T22:56:40.812Z,-0.57
2019-02-23T22:59:09.099Z,-0.56
2019-02-23T23:01:37.429Z,-0.60
2019-02-23T23:04:05.696Z,-0.74
2019-02-23T23:06:40.646Z,-0.77
2019-02-23T23:09:10.595Z,-0.80
2019-02-23T23:11:38.876Z,-1.45
2019-02-23T23:14:07.182Z,-1.51
2019-02-23T23:16:35.488Z,-2.19
2019-02-23T23:19:03.786Z,-1.57
2019-02-23T23:21:32.364Z,-1.71
2019-02-23T23:24:00.647Z,-1.74
2019-02-23T23:26:28.930Z,-1.98
2019-02-23T23:28:57.206Z,-1.71
2019-02-23T23:31:25.506Z,-1.35
2019-02-23T23:33:53.774Z,-1.22
2019-02-23T23:36:22.075Z,-1.57
2019-02-23T23:38:50.357Z,-1.54
2019-02-23T23:41:18.695Z,-1.30
2019-02-23T23:43:46.956Z,-1.21
2019-02-23T23:46:15.224Z,-1.16
2019-02-23T23:48:43.510Z,-1.17
2019-02-23T23:51:11.786Z,-1.19
2019-02-23T23:53:40.087Z,-1.10
2019-02-23T23:56:08.356Z,-1.04
2019-02-23T23:58:36.665Z,-1.19
